Pagrindinis puslapis
METAR-TAF:

METAR-TAF

Oro uostai :

Durham, Anglija

platuma: 54-31N, ilguma: 001-25W, Aukštis: 37 m

Dabartinis oras

Ataskaita buvo paskelbta 30 minutes, ne 20:50 UTC
Vėjas 5 kt iš Pietų/Pietvakarių
Temperatūra 2°C
Drėgmė 93%
Slėgis 1042 hPa
Matomumas 10 km arba daugiau
nėra debesų žemiau 1500 m ir nėra kamuolinių lietaus debesų

METAR: EGNV 202050Z 20005KT CAVOK 02/01 Q1042

Laikas: 21:20 (21:20 UTC)

Prognozė

Ataskaita buvo paskelbta 4 valandos ir 13 minutes, ne 17:07 UTC
Prognozė galioja nuo 20 metu 18 UTC su 20 metu 22 UTC
Vėjas 5 kt iš Pietų/Pietvakarių
Matomumas 10 km arba daugiau
Mažai debesys ne aukštis 4500 ft
Tikimybė 30%
nuo 20 metu 18 UTC su 20 metu 22 UTC
Matomumas: 6000 m

TAF: EGNV 201707Z 2018/2022 20005KT 9999 FEW045 PROB30 2018/2022 6000

Orai ataskaitas ir orų prognozės (METAR, TAF).

turimą stotys yra geltonos ir raudonos taškus žemėlapyje.

Perkelti pele per norėdami pamatyti stoties vardą.

Tada spustelėkite, norėdami matyti oro stebėjimo ir prognozės.

Norėdami pakeisti žemėlapį: spustelėkite ant žalios mygtukų su juodo kryžiaus žemyn,; žalią mygtuką su brūkšneliu, jei norite nutolinti; arba žalių rodyklių gretimoms žemėlapius.


METAR-TAF: